createdAt,value
2018-06-05T12:42:46.562Z,78.86
2018-06-05T12:43:22.483Z,79.60
2018-06-05T12:44:48.217Z,79.69
2018-06-05T12:45:23.518Z,78.73
2018-06-05T12:45:59.026Z,78.92
2018-06-05T12:46:34.331Z,79.60
2018-06-05T12:47:09.534Z,79.79
2018-06-05T12:47:45.115Z,80.27
2018-06-05T12:48:20.736Z,80.27
2018-06-05T12:48:56.302Z,80.37
2018-06-05T12:49:31.575Z,79.60
2018-06-05T12:50:06.786Z,78.92
2018-06-05T12:50:42.051Z,78.73
2018-06-05T12:51:17.276Z,78.83
2018-06-05T12:51:53.852Z,79.11
2018-06-05T12:52:29.284Z,78.73
2018-06-05T12:53:05.080Z,78.83
2018-06-05T12:53:40.368Z,79.02
2018-06-05T12:54:15.793Z,79.02
2018-06-05T12:54:50.918Z,79.31
2018-06-05T12:55:26.562Z,79.41
2018-06-05T12:56:01.824Z,79.60
2018-06-05T12:56:37.147Z,79.89
2018-06-05T12:57:12.522Z,79.93
2018-06-05T12:57:51.933Z,79.54
2018-06-05T12:58:27.185Z,79.64
2018-06-05T12:59:04.443Z,79.50
2018-06-05T12:59:39.694Z,79.02
2018-06-05T13:00:15.079Z,78.77
2018-06-05T13:00:50.145Z,78.83
2018-06-05T13:01:25.348Z,78.96
2018-06-05T13:02:00.852Z,78.77
2018-06-05T13:02:36.370Z,78.86
2018-06-05T13:03:12.092Z,78.96
2018-06-05T13:03:47.388Z,78.38
2018-06-05T13:04:22.688Z,78.48
2018-06-05T13:04:58.308Z,78.44
2018-06-05T13:05:33.624Z,78.44
2018-06-05T13:06:08.902Z,78.25
2018-06-05T13:06:44.427Z,78.73
2018-06-05T13:07:19.741Z,78.54
2018-06-05T13:07:55.123Z,78.83
2018-06-05T13:08:30.335Z,79.06
2018-06-05T13:09:05.907Z,79.06
2018-06-05T13:09:41.309Z,78.86
2018-06-05T13:10:16.337Z,78.48
2018-06-05T13:10:54.544Z,78.48
2018-06-05T13:11:32.952Z,79.06
2018-06-05T13:12:08.500Z,78.67
2018-06-05T13:12:45.922Z,77.90
2018-06-05T13:13:23.623Z,77.17
2018-06-05T13:14:02.946Z,77.26
2018-06-05T13:14:41.741Z,76.98
2018-06-05T13:15:18.921Z,76.98
2018-06-05T13:15:55.818Z,76.88
2018-06-05T13:16:31.135Z,76.20
2018-06-05T13:17:06.830Z,76.59
2018-06-05T13:17:42.275Z,76.59
2018-06-05T13:18:17.502Z,76.50
2018-06-05T13:18:52.589Z,76.40
2018-06-05T13:19:28.117Z,76.68
2018-06-05T13:20:03.513Z,76.98
2018-06-05T13:20:39.486Z,77.65
2018-06-05T13:21:15.183Z,77.36
2018-06-05T13:21:50.728Z,76.78
2018-06-05T13:22:26.157Z,76.17
2018-06-05T13:23:01.655Z,77.23
2018-06-05T13:23:36.824Z,77.13
2018-06-05T13:24:12.099Z,76.75
2018-06-05T13:24:47.228Z,77.42
2018-06-05T13:25:24.817Z,77.03
2018-06-05T13:25:59.968Z,77.03
2018-06-05T13:26:35.575Z,77.33
2018-06-05T13:27:10.897Z,77.17
2018-06-05T13:27:46.194Z,77.26
2018-06-05T13:28:21.561Z,77.07
2018-06-05T13:28:57.182Z,76.98
2018-06-05T13:29:32.406Z,76.68
2018-06-05T13:30:08.042Z,76.88
2018-06-05T13:30:44.680Z,76.40
2018-06-05T13:31:20.352Z,76.78
2018-06-05T13:31:55.430Z,77.17
2018-06-05T13:32:30.740Z,76.78
2018-06-05T13:33:07.158Z,76.50
2018-06-05T13:33:42.530Z,76.68
2018-06-05T13:34:17.722Z,76.68
2018-06-05T13:34:53.046Z,76.59
2018-06-05T13:35:28.251Z,76.01
2018-06-05T13:36:03.483Z,76.20
2018-06-05T13:36:38.784Z,76.43
2018-06-05T13:37:14.355Z,76.10
2018-06-05T13:37:49.835Z,76.72
2018-06-05T13:38:25.025Z,75.95
2018-06-05T13:39:00.541Z,75.85
2018-06-05T13:39:35.825Z,75.92
2018-06-05T13:40:11.603Z,76.20
2018-06-05T13:40:47.088Z,76.20
2018-06-05T13:41:22.620Z,76.20
2018-06-05T13:41:58.288Z,76.20
2018-06-05T13:42:33.562Z,76.10
2018-06-05T13:43:09.470Z,77.36
2018-06-05T13:43:44.925Z,77.75
2018-06-05T13:44:20.492Z,77.17
2018-06-05T13:44:55.772Z,77.07
2018-06-05T13:45:30.912Z,76.50
2018-06-05T13:46:06.299Z,76.40
2018-06-05T13:46:42.806Z,76.20
2018-06-05T13:47:18.251Z,76.98
2018-06-05T13:47:53.498Z,76.98
2018-06-05T13:48:28.539Z,76.50
2018-06-05T13:49:03.853Z,76.20
2018-06-05T13:49:39.563Z,76.05
2018-06-05T13:50:14.979Z,76.10
2018-06-05T13:50:50.391Z,76.30
2018-06-05T13:51:25.702Z,76.10
2018-06-05T13:52:01.103Z,76.20
2018-06-05T13:52:36.471Z,75.82
2018-06-05T13:53:12.235Z,76.98
2018-06-05T13:53:47.881Z,76.78
2018-06-05T13:54:23.194Z,76.88
2018-06-05T13:54:58.715Z,77.26
2018-06-05T13:55:34.115Z,76.88
2018-06-05T13:56:10.255Z,76.88
2018-06-05T13:56:45.780Z,76.88
2018-06-05T13:57:21.521Z,76.98
2018-06-05T13:57:56.945Z,76.50
2018-06-05T13:58:33.252Z,76.20
2018-06-05T13:59:09.054Z,76.59
2018-06-05T13:59:44.210Z,76.50
2018-06-05T14:00:19.451Z,76.30
2018-06-05T14:00:55.941Z,76.40
2018-06-05T14:01:31.058Z,76.50
2018-06-05T14:02:06.336Z,76.40
2018-06-05T14:02:41.665Z,76.20
2018-06-05T14:03:16.975Z,76.53
2018-06-05T14:03:53.320Z,76.05
2018-06-05T14:04:28.716Z,76.05
2018-06-05T14:05:03.959Z,76.05
2018-06-05T14:05:39.476Z,75.95
2018-06-05T14:06:14.554Z,76.20
2018-06-05T14:06:49.904Z,75.62
2018-06-05T14:07:26.017Z,76.10
2018-06-05T14:08:01.360Z,75.88
2018-06-05T14:08:36.678Z,76.55
2018-06-05T14:09:12.277Z,76.84
2018-06-05T14:09:48.188Z,76.45
2018-06-05T14:10:23.308Z,76.45
2018-06-05T14:10:59.221Z,76.26
2018-06-05T14:11:34.434Z,76.75
2018-06-05T14:12:09.783Z,76.55
2018-06-05T14:12:45.984Z,75.78
2018-06-05T14:13:21.516Z,76.26
2018-06-05T14:13:56.759Z,76.65
2018-06-05T14:14:32.279Z,76.13
2018-06-05T14:15:07.471Z,76.45
2018-06-05T14:15:44.195Z,77.13
2018-06-05T14:16:20.231Z,77.71
2018-06-05T14:16:55.680Z,77.23
2018-06-05T14:17:30.988Z,77.71
2018-06-05T14:18:06.277Z,77.33
2018-06-05T14:18:42.661Z,77.36
2018-06-05T14:19:17.943Z,76.78
2018-06-05T14:19:53.279Z,77.36
2018-06-05T14:20:28.809Z,76.01
2018-06-05T14:21:04.057Z,76.01
2018-06-05T14:21:39.680Z,75.72
2018-06-05T14:22:14.924Z,76.30
2018-06-05T14:22:50.422Z,75.92
2018-06-05T14:23:25.790Z,76.40
2018-06-05T14:24:01.056Z,76.20
2018-06-05T14:24:36.826Z,76.30
2018-06-05T14:25:12.170Z,77.17
2018-06-05T14:25:48.279Z,76.59
2018-06-05T14:26:23.536Z,76.20
2018-06-05T14:27:00.427Z,75.95
2018-06-05T14:27:35.848Z,75.72
2018-06-05T14:28:11.163Z,75.34
2018-06-05T14:28:48.412Z,75.14
2018-06-05T14:29:23.825Z,75.34
2018-06-05T14:29:59.057Z,76.01
2018-06-05T14:30:34.698Z,76.20
2018-06-05T14:31:10.000Z,76.59
2018-06-05T14:31:45.470Z,75.72
2018-06-05T14:32:20.734Z,75.72
2018-06-05T14:32:56.266Z,75.53
2018-06-05T14:33:31.541Z,74.85
2018-06-05T14:34:07.191Z,75.40
2018-06-05T14:34:43.792Z,75.20
2018-06-05T14:35:19.131Z,75.78
2018-06-05T14:35:54.478Z,76.45
2018-06-05T14:36:30.290Z,76.45
2018-06-05T14:37:06.966Z,76.75
2018-06-05T14:37:42.713Z,76.50
2018-06-05T14:38:19.098Z,77.07
2018-06-05T14:38:54.596Z,76.50
2018-06-05T14:39:30.129Z,76.30
2018-06-05T14:40:05.528Z,76.20
2018-06-05T14:40:43.392Z,76.20
2018-06-05T14:41:18.705Z,74.76
2018-06-05T14:41:54.329Z,75.43
2018-06-05T14:42:29.851Z,75.92
2018-06-05T14:43:05.145Z,75.82
2018-06-05T14:43:40.362Z,75.82
2018-06-05T14:44:15.773Z,75.72
2018-06-05T14:44:51.424Z,76.15
2018-06-05T14:45:26.991Z,75.05
2018-06-05T14:46:02.487Z,75.53
2018-06-05T14:46:38.467Z,75.72
2018-06-05T14:47:13.682Z,75.20
2018-06-05T14:47:49.104Z,75.30
2018-06-05T14:48:24.791Z,76.50
2018-06-05T14:49:00.038Z,76.45
2018-06-05T14:49:35.464Z,76.30
2018-06-05T14:50:10.608Z,76.10
2018-06-05T14:50:50.587Z,76.10
2018-06-05T14:51:26.207Z,76.40
2018-06-05T14:52:01.610Z,76.10
2018-06-05T14:52:38.023Z,75.20
2018-06-05T14:53:13.421Z,75.10
2018-06-05T14:53:48.937Z,75.20
2018-06-05T14:54:24.539Z,75.40
2018-06-05T14:54:59.843Z,75.78
2018-06-05T14:55:35.002Z,76.65
2018-06-05T14:56:10.179Z,76.23
2018-06-05T14:56:45.655Z,76.51
2018-06-05T14:57:21.239Z,76.61
2018-06-05T14:57:56.666Z,76.71
2018-06-05T14:58:31.862Z,76.61
2018-06-05T14:59:07.186Z,76.61
2018-06-05T14:59:42.662Z,77.28
2018-06-05T15:00:18.043Z,77.09
2018-06-05T15:00:55.286Z,77.48
2018-06-05T15:01:30.697Z,77.76
2018-06-05T15:02:06.449Z,77.76
2018-06-05T15:02:41.866Z,77.58
2018-06-05T15:03:17.206Z,77.03
2018-06-05T15:03:52.822Z,77.23
2018-06-05T15:04:28.540Z,77.13
2018-06-05T15:05:04.376Z,78.58
2018-06-05T15:05:41.198Z,78.48
2018-06-05T15:06:16.355Z,77.03
2018-06-05T15:06:52.502Z,76.65
2018-06-05T15:07:27.921Z,76.13
2018-06-05T15:08:03.134Z,76.23
2018-06-05T15:08:38.880Z,75.68
2018-06-05T15:09:15.135Z,75.93
2018-06-05T15:09:50.454Z,76.51
2018-06-05T15:10:25.967Z,76.80
2018-06-05T15:11:01.232Z,76.90
2018-06-05T15:11:36.566Z,76.32
2018-06-05T15:12:11.856Z,76.71
2018-06-05T15:12:48.334Z,76.80
2018-06-05T15:13:23.835Z,76.90
2018-06-05T15:13:59.060Z,77.00
2018-06-05T15:14:34.960Z,77.09
2018-06-05T15:15:10.402Z,77.19
2018-06-05T15:15:48.074Z,77.76
2018-06-05T15:16:23.586Z,78.34
2018-06-05T15:16:59.093Z,78.15
2018-06-05T15:17:34.838Z,78.34
2018-06-05T15:18:10.462Z,78.06
2018-06-05T15:18:46.089Z,77.81
2018-06-05T15:19:22.524Z,78.00
2018-06-05T15:19:57.917Z,76.65
2018-06-05T15:20:33.228Z,76.32
2018-06-05T15:21:08.744Z,77.28
2018-06-05T15:21:44.401Z,77.81
2018-06-05T15:22:19.893Z,77.13
2018-06-05T15:22:55.389Z,76.71
2018-06-05T15:23:32.526Z,76.65
2018-06-05T15:24:07.935Z,76.51
2018-06-05T15:24:43.855Z,76.75
2018-06-05T15:25:19.171Z,76.75
2018-06-05T15:25:54.812Z,77.71
2018-06-05T15:26:30.839Z,77.58
2018-06-05T15:27:06.085Z,77.33
2018-06-05T15:27:41.424Z,77.48
2018-06-05T15:28:17.138Z,77.71
2018-06-05T15:28:52.452Z,76.71
2018-06-05T15:29:27.748Z,77.13
2018-06-05T15:30:03.204Z,77.13
2018-06-05T15:30:40.206Z,77.03
2018-06-05T15:31:15.372Z,77.61
2018-06-05T15:31:50.861Z,77.81
2018-06-05T15:32:26.197Z,77.03
2018-06-05T15:33:02.606Z,77.03
2018-06-05T15:33:38.015Z,76.65
2018-06-05T15:34:13.538Z,77.03
2018-06-05T15:34:49.916Z,77.23
2018-06-05T15:35:25.300Z,77.42
2018-06-05T15:36:00.747Z,77.71
2018-06-05T15:36:36.345Z,77.81
2018-06-05T15:37:11.799Z,76.84
2018-06-05T15:37:46.941Z,76.75
2018-06-05T15:38:21.993Z,77.33
2018-06-05T15:38:57.707Z,77.71
2018-06-05T15:39:33.046Z,77.81
2018-06-05T15:40:08.336Z,77.90
2018-06-05T15:40:45.703Z,77.90
2018-06-05T15:41:20.896Z,77.75
2018-06-05T15:41:56.863Z,77.23
2018-06-05T15:42:32.286Z,77.33
2018-06-05T15:43:07.798Z,77.07
2018-06-05T15:43:43.056Z,76.68
2018-06-05T15:44:19.340Z,77.42
2018-06-05T15:44:54.579Z,76.84
2018-06-05T15:45:29.892Z,77.03
2018-06-05T15:46:05.310Z,77.55
2018-06-05T15:46:40.623Z,77.26
2018-06-05T15:47:16.444Z,77.55
2018-06-05T15:47:52.095Z,78.23
2018-06-05T15:48:27.472Z,77.07
2018-06-05T15:49:02.921Z,76.68
2018-06-05T15:49:38.299Z,77.07
2018-06-05T15:50:14.163Z,77.26
2018-06-05T15:50:50.658Z,76.68
2018-06-05T15:51:26.120Z,76.78
2018-06-05T15:52:01.300Z,76.88
2018-06-05T15:52:36.631Z,76.30
2018-06-05T15:53:12.086Z,75.92
2018-06-05T15:53:47.206Z,76.01
2018-06-05T15:54:23.730Z,76.78
2018-06-05T15:54:59.447Z,76.01
2018-06-05T15:55:35.757Z,75.68
2018-06-05T15:56:11.321Z,75.68
2018-06-05T15:56:50.097Z,76.55
2018-06-05T15:57:25.535Z,76.84
2018-06-05T15:58:00.856Z,76.93
2018-06-05T15:58:36.198Z,76.84
2018-06-05T15:59:11.819Z,76.36
2018-06-05T15:59:47.538Z,76.26
2018-06-05T16:00:23.066Z,75.97
2018-06-05T16:01:01.886Z,76.36
2018-06-05T16:01:37.011Z,76.75
2018-06-05T16:02:12.325Z,76.07
2018-06-05T16:02:47.806Z,76.17
2018-06-05T16:03:23.243Z,76.55
2018-06-05T16:03:58.669Z,76.65
2018-06-05T16:04:34.000Z,76.26
2018-06-05T16:05:09.579Z,77.03
2018-06-05T16:05:44.811Z,77.03
2018-06-05T16:06:20.165Z,76.84
2018-06-05T16:06:56.558Z,76.45
2018-06-05T16:07:31.766Z,76.36
2018-06-05T16:08:06.986Z,77.03
2018-06-05T16:08:42.205Z,76.65
2018-06-05T16:09:17.416Z,76.65
2018-06-05T16:09:52.827Z,75.97
2018-06-05T16:10:27.971Z,75.78
2018-06-05T16:11:03.386Z,76.84
2018-06-05T16:11:38.647Z,76.45
2018-06-05T16:12:16.634Z,76.55
2018-06-05T16:12:51.872Z,75.88
2018-06-05T16:13:27.062Z,75.97
2018-06-05T16:14:02.692Z,75.78
2018-06-05T16:14:38.016Z,75.97
2018-06-05T16:15:13.435Z,75.97
2018-06-05T16:15:49.771Z,75.68
2018-06-05T16:16:25.201Z,76.17
2018-06-05T16:17:00.497Z,77.33
2018-06-05T16:17:35.841Z,76.26
2018-06-05T16:18:11.237Z,76.84
2018-06-05T16:18:46.969Z,76.93
2018-06-05T16:19:22.821Z,76.55
2018-06-05T16:19:58.129Z,76.65
2018-06-05T16:20:33.649Z,76.84
2018-06-05T16:21:08.989Z,76.55
2018-06-05T16:21:44.485Z,76.36
2018-06-05T16:22:19.937Z,76.93
2018-06-05T16:22:55.125Z,75.97
2018-06-05T16:23:30.381Z,76.75
2018-06-05T16:24:05.876Z,76.36
2018-06-05T16:24:41.375Z,76.55
2018-06-05T16:25:16.775Z,77.13
2018-06-05T16:25:52.082Z,76.07
2018-06-05T16:26:27.472Z,76.17
2018-06-05T16:27:02.863Z,77.03
2018-06-05T16:27:38.391Z,76.84
2018-06-05T16:28:14.100Z,76.26
2018-06-05T16:28:49.392Z,76.55
2018-06-05T16:29:25.036Z,76.45
2018-06-05T16:30:00.412Z,75.97
2018-06-05T16:30:36.245Z,76.55
2018-06-05T16:31:11.625Z,76.26
2018-06-05T16:31:46.652Z,76.84
2018-06-05T16:32:24.110Z,77.03
2018-06-05T16:32:59.951Z,76.45
2018-06-05T16:33:35.061Z,77.03
2018-06-05T16:34:10.784Z,77.61
2018-06-05T16:34:46.499Z,77.71
2018-06-05T16:35:23.340Z,77.61
2018-06-05T16:35:58.761Z,77.61
2018-06-05T16:36:34.324Z,78.09
2018-06-05T16:37:09.730Z,78.09
2018-06-05T16:37:45.069Z,78.00
2018-06-05T16:38:20.467Z,76.65
2018-06-05T16:38:55.788Z,76.26
2018-06-05T16:39:31.468Z,76.45
2018-06-05T16:40:07.217Z,76.45
2018-06-05T16:40:45.114Z,76.93
2018-06-05T16:41:20.477Z,77.03
2018-06-05T16:41:55.682Z,77.51
2018-06-05T16:42:31.338Z,78.09
2018-06-05T16:43:06.742Z,77.23
2018-06-05T16:43:42.662Z,76.65
2018-06-05T16:44:18.252Z,76.93
2018-06-05T16:44:53.670Z,76.55
2018-06-05T16:45:29.907Z,76.17
2018-06-05T16:46:05.044Z,76.17
2018-06-05T16:46:41.043Z,76.36
2018-06-05T16:47:16.473Z,76.17
2018-06-05T16:47:51.875Z,76.45
2018-06-05T16:48:27.286Z,77.13
2018-06-05T16:49:02.819Z,76.84
2018-06-05T16:49:38.562Z,76.36
2018-06-05T16:50:13.857Z,76.07
2018-06-05T16:50:50.003Z,76.26
2018-06-05T16:51:25.324Z,75.97
2018-06-05T16:52:00.841Z,76.93
2018-06-05T16:52:36.121Z,76.26
2018-06-05T16:53:11.442Z,76.75
2018-06-05T16:53:49.775Z,76.75
2018-06-05T16:54:24.906Z,76.93
2018-06-05T16:55:00.389Z,76.65
2018-06-05T16:55:36.466Z,77.13
2018-06-05T16:56:12.051Z,76.84
2018-06-05T16:56:47.369Z,76.45
2018-06-05T16:57:22.559Z,76.75
2018-06-05T16:57:58.192Z,77.03
2018-06-05T16:58:33.995Z,76.84
2018-06-05T16:59:09.407Z,76.65
2018-06-05T16:59:44.745Z,76.55
2018-06-05T17:00:20.052Z,77.03
2018-06-05T17:00:58.591Z,76.55
2018-06-05T17:01:33.925Z,77.23
2018-06-05T17:02:09.430Z,76.84
2018-06-05T17:02:44.672Z,76.93
2018-06-05T17:03:20.083Z,76.45
2018-06-05T17:03:55.417Z,77.03
2018-06-05T17:04:30.920Z,77.42
2018-06-05T17:05:06.061Z,76.84
2018-06-05T17:05:41.658Z,76.75
2018-06-05T17:06:17.703Z,77.13
2018-06-05T17:06:52.896Z,77.03
2018-06-05T17:07:29.611Z,77.23
2018-06-05T17:08:05.132Z,77.33
2018-06-05T17:08:40.475Z,76.93
2018-06-05T17:09:15.762Z,76.93
2018-06-05T17:09:51.186Z,76.75
2018-06-05T17:10:26.667Z,76.65
2018-06-05T17:11:02.313Z,77.03
2018-06-05T17:11:38.742Z,76.84
2018-06-05T17:12:14.170Z,76.65
2018-06-05T17:12:49.625Z,76.45
2018-06-05T17:13:25.089Z,77.42
2018-06-05T17:14:00.503Z,77.23
2018-06-05T17:14:35.529Z,77.42
2018-06-05T17:15:10.705Z,77.81
2018-06-05T17:15:48.152Z,77.51
2018-06-05T17:16:23.332Z,77.61
2018-06-05T17:16:58.412Z,77.33
2018-06-05T17:17:35.321Z,77.61
2018-06-05T17:18:10.958Z,77.90
2018-06-05T17:18:48.072Z,78.00
2018-06-05T17:19:23.840Z,77.71
2018-06-05T17:19:59.323Z,77.71
2018-06-05T17:20:34.658Z,78.29
2018-06-05T17:21:11.674Z,78.29
2018-06-05T17:21:47.050Z,78.38
2018-06-05T17:22:23.165Z,78.67
2018-06-05T17:22:58.839Z,78.00
2018-06-05T17:23:34.221Z,77.90
2018-06-05T17:24:09.639Z,78.00
2018-06-05T17:24:44.870Z,77.81
2018-06-05T17:25:20.191Z,78.29
2018-06-05T17:25:57.117Z,78.29
2018-06-05T17:26:32.278Z,78.29
2018-06-05T17:27:07.798Z,78.29
2018-06-05T17:27:43.249Z,78.38
2018-06-05T17:28:18.550Z,78.38
2018-06-05T17:28:54.709Z,77.81
2018-06-05T17:29:30.020Z,77.90
2018-06-05T17:30:05.793Z,77.33
2018-06-05T17:30:42.614Z,76.65
2018-06-05T17:31:17.933Z,76.93
2018-06-05T17:31:53.211Z,76.75
2018-06-05T17:32:28.653Z,76.65
2018-06-05T17:33:03.801Z,77.51
2018-06-05T17:33:39.606Z,78.00
2018-06-05T17:34:15.033Z,76.84
2018-06-05T17:34:50.999Z,76.75
2018-06-05T17:35:26.293Z,76.75
2018-06-05T17:36:02.061Z,76.36
2018-06-05T17:36:37.650Z,76.36
2018-06-05T17:37:12.997Z,76.93
2018-06-05T17:37:48.403Z,76.84
2018-06-05T17:38:23.859Z,77.42
2018-06-05T17:38:59.169Z,76.65
2018-06-05T17:39:34.999Z,76.45
2018-06-05T17:40:10.531Z,76.26
2018-06-05T17:40:46.062Z,76.65
2018-06-05T17:41:21.263Z,76.45
2018-06-05T17:41:56.518Z,76.36
2018-06-05T17:42:32.008Z,76.65
2018-06-05T17:43:07.228Z,76.84
2018-06-05T17:43:43.067Z,76.84
2018-06-05T17:44:18.808Z,76.65
2018-06-05T17:44:54.426Z,77.13
2018-06-05T17:45:29.812Z,77.90
2018-06-05T17:46:05.461Z,76.75
2018-06-05T17:46:42.022Z,76.84
2018-06-05T17:47:17.628Z,76.93
2018-06-05T17:47:52.952Z,77.13
2018-06-05T17:48:28.391Z,77.51
2018-06-05T17:49:03.844Z,77.33
2018-06-05T17:49:39.365Z,77.81
2018-06-05T17:50:14.982Z,77.71
2018-06-05T17:50:50.381Z,77.03
2018-06-05T17:51:25.683Z,77.33
2018-06-05T17:52:00.996Z,76.84
2018-06-05T17:52:36.160Z,77.03
2018-06-05T17:53:11.554Z,77.13
2018-06-05T17:53:46.886Z,77.28
2018-06-05T17:54:22.212Z,77.81
2018-06-05T17:54:57.846Z,77.81
2018-06-05T17:55:33.294Z,77.61
2018-06-05T17:56:09.334Z,77.51
2018-06-05T17:56:46.349Z,77.51
2018-06-05T17:57:21.675Z,77.51
2018-06-05T17:57:59.200Z,77.42
2018-06-05T17:58:34.925Z,78.19
2018-06-05T17:59:10.538Z,77.81
2018-06-05T17:59:45.797Z,78.09
2018-06-05T18:00:21.187Z,78.38
2018-06-05T18:00:57.171Z,77.51
2018-06-05T18:01:32.790Z,77.03
2018-06-05T18:02:08.216Z,77.23
2018-06-05T18:02:43.623Z,77.03
2018-06-05T18:03:19.049Z,77.51
2018-06-05T18:04:01.471Z,77.90
2018-06-05T18:04:36.771Z,77.81
2018-06-05T18:05:12.234Z,77.81
2018-06-05T18:05:47.769Z,78.09
2018-06-05T18:06:23.073Z,78.19
2018-06-05T18:06:58.556Z,78.67
2018-06-05T18:07:33.960Z,78.44
2018-06-05T18:08:09.970Z,78.48
2018-06-05T18:08:45.391Z,78.00
2018-06-05T18:09:20.969Z,78.19
2018-06-05T18:09:56.276Z,77.48
2018-06-05T18:10:31.924Z,78.06
2018-06-05T18:11:09.460Z,77.96
2018-06-05T18:11:44.676Z,78.06
2018-06-05T18:12:20.348Z,78.15
2018-06-05T18:12:55.914Z,77.76
2018-06-05T18:13:31.312Z,77.48
2018-06-05T18:14:06.772Z,77.76
2018-06-05T18:14:42.070Z,77.96
2018-06-05T18:15:17.191Z,78.25
2018-06-05T18:15:55.665Z,77.96
2018-06-05T18:16:30.989Z,77.58
2018-06-05T18:17:06.457Z,78.06
2018-06-05T18:17:42.393Z,78.54
2018-06-05T18:18:17.588Z,78.54
2018-06-05T18:18:53.112Z,78.25
2018-06-05T18:19:28.412Z,78.34
2018-06-05T18:20:03.740Z,78.25
2018-06-05T18:20:39.723Z,78.34
2018-06-05T18:21:15.242Z,78.63
2018-06-05T18:21:50.454Z,78.54
2018-06-05T18:22:25.914Z,78.63
2018-06-05T18:23:01.724Z,79.02
2018-06-05T18:23:36.978Z,78.54
2018-06-05T18:24:12.795Z,78.54
2018-06-05T18:24:48.916Z,78.34
2018-06-05T18:25:24.404Z,78.54
2018-06-05T18:25:59.450Z,78.15
2018-06-05T18:26:34.767Z,78.63
2018-06-05T18:27:10.131Z,79.02
2018-06-05T18:27:45.567Z,78.92
2018-06-05T18:28:21.606Z,78.92
2018-06-05T18:28:56.897Z,56.95
2018-06-05T18:29:35.937Z,63.09
2018-06-05T18:30:11.446Z,57.02
2018-06-05T18:30:48.216Z,62.09
2018-06-05T18:31:24.924Z,66.42
2018-06-05T18:32:00.386Z,70.15
2018-06-05T18:32:36.101Z,68.03
2018-06-05T18:33:13.553Z,72.71
2018-06-05T18:33:48.863Z,73.19
2018-06-05T18:34:24.699Z,74.34
2018-06-05T18:34:59.971Z,73.57
2018-06-05T18:35:35.438Z,71.84
2018-06-05T18:36:11.544Z,69.15
2018-06-05T18:36:47.068Z,63.83
2018-06-05T18:37:22.223Z,67.48
2018-06-05T18:37:57.411Z,63.54
2018-06-05T18:38:32.802Z,59.12
2018-06-05T18:39:08.288Z,58.25
2018-06-05T18:39:43.511Z,55.46
2018-06-05T18:40:19.043Z,49.89
2018-06-05T18:40:54.400Z,47.87
2018-06-05T18:41:29.458Z,44.12
2018-06-05T18:42:05.057Z,50.27
2018-06-05T18:42:40.908Z,50.85
2018-06-05T18:43:16.529Z,49.22
2018-06-05T18:43:54.855Z,43.74
2018-06-05T18:44:30.255Z,44.12
2018-06-05T18:45:05.758Z,50.85
2018-06-05T18:45:41.085Z,57.87
2018-06-05T18:46:16.434Z,58.15
2018-06-05T18:46:51.628Z,62.29
2018-06-05T18:47:27.271Z,64.50
2018-06-05T18:48:03.140Z,70.07
2018-06-05T18:48:38.473Z,73.35
2018-06-05T18:49:13.783Z,68.06
2018-06-05T18:49:49.089Z,67.19
2018-06-05T18:50:24.781Z,69.69
2018-06-05T18:51:00.405Z,71.91
2018-06-05T18:51:35.712Z,67.77
2018-06-05T18:52:11.134Z,71.42
2018-06-05T18:52:46.499Z,67.68
2018-06-05T18:53:21.714Z,70.27
2018-06-05T18:53:57.003Z,67.83
2018-06-05T18:54:32.243Z,68.63
2018-06-05T18:55:08.465Z,63.45
2018-06-05T18:55:43.793Z,66.10
2018-06-05T18:56:19.111Z,66.61
2018-06-05T18:56:54.452Z,65.05
2018-06-05T18:57:29.678Z,66.87
2018-06-05T18:58:05.114Z,68.31
2018-06-05T18:58:40.651Z,62.84
2018-06-05T18:59:16.002Z,63.32
2018-06-05T18:59:52.076Z,63.32
2018-06-05T19:00:27.421Z,64.66
2018-06-05T19:01:03.715Z,65.53
2018-06-05T19:01:39.258Z,67.86
2018-06-05T19:02:14.686Z,68.02
2018-06-05T19:02:49.897Z,67.74
2018-06-05T19:03:25.194Z,66.10
2018-06-05T19:04:00.799Z,67.35
2018-06-05T19:04:36.439Z,61.49
2018-06-05T19:05:11.773Z,61.49
2018-06-05T19:05:47.269Z,61.30
2018-06-05T19:06:22.639Z,64.66
2018-06-05T19:06:57.909Z,67.96
2018-06-05T19:07:33.044Z,66.68
2018-06-05T19:08:08.626Z,64.28
2018-06-05T19:08:44.160Z,63.41
2018-06-05T19:09:19.514Z,63.51
2018-06-05T19:09:54.836Z,63.02
2018-06-05T19:10:30.026Z,66.30
2018-06-05T19:11:05.304Z,68.12
2018-06-05T19:11:41.617Z,69.40
2018-06-05T19:12:17.275Z,69.66
2018-06-05T19:12:52.566Z,71.87
2018-06-05T19:13:28.012Z,71.42
2018-06-05T19:14:03.433Z,74.11
2018-06-05T19:14:39.003Z,73.25
2018-06-05T19:15:14.374Z,71.33
2018-06-05T19:15:50.507Z,72.64
2018-06-05T19:16:25.719Z,72.29
2018-06-05T19:17:01.270Z,71.23
2018-06-05T19:17:36.489Z,69.21
2018-06-05T19:18:11.813Z,66.00
2018-06-05T19:18:47.725Z,64.40
2018-06-05T19:19:22.945Z,62.00
2018-06-05T19:19:58.307Z,60.72
2018-06-05T19:20:33.711Z,60.72
2018-06-05T19:21:09.663Z,57.17
2018-06-05T19:21:45.122Z,61.43
2018-06-05T19:22:20.336Z,64.18
2018-06-05T19:22:55.873Z,65.91
2018-06-05T19:23:31.368Z,66.00
2018-06-05T19:24:06.652Z,65.43
2018-06-05T19:24:41.973Z,70.62
2018-06-05T19:25:17.448Z,68.12
2018-06-05T19:25:52.727Z,67.25
2018-06-05T19:26:28.363Z,66.00
2018-06-05T19:27:03.499Z,67.93
2018-06-05T19:27:38.816Z,66.39
2018-06-05T19:28:14.130Z,65.91
2018-06-05T19:28:49.353Z,67.07
2018-06-05T19:29:24.840Z,68.98
2018-06-05T19:30:00.201Z,68.79
2018-06-05T19:30:35.680Z,70.33
2018-06-05T19:31:11.331Z,71.77
2018-06-05T19:31:46.422Z,71.39
2018-06-05T19:32:21.759Z,71.77
2018-06-05T19:32:57.051Z,71.19
2018-06-05T19:33:32.615Z,71.52
2018-06-05T19:34:08.032Z,72.34
2018-06-05T19:34:43.814Z,72.58
2018-06-05T19:35:19.485Z,71.42
2018-06-05T19:35:54.937Z,72.54
2018-06-05T19:36:30.269Z,72.86
2018-06-05T19:37:05.623Z,72.64
2018-06-05T19:37:41.341Z,72.77
2018-06-05T19:38:16.565Z,72.67
2018-06-05T19:38:51.684Z,74.69
2018-06-05T19:39:26.798Z,75.07
2018-06-05T19:40:02.335Z,74.50
2018-06-05T19:40:38.965Z,73.44
2018-06-05T19:41:14.222Z,73.06
2018-06-05T19:41:49.848Z,73.63
2018-06-05T19:42:25.260Z,73.92
2018-06-05T19:43:00.893Z,73.63
2018-06-05T19:43:36.285Z,74.17
2018-06-05T19:44:11.591Z,73.06
2018-06-05T19:44:47.023Z,73.73
2018-06-05T19:45:22.449Z,73.50
2018-06-05T19:45:57.754Z,74.37
2018-06-05T19:46:33.238Z,73.35
2018-06-05T19:47:08.711Z,73.25
2018-06-05T19:47:43.943Z,74.08
2018-06-05T19:48:19.784Z,74.60
2018-06-05T19:48:55.048Z,75.62
2018-06-05T19:49:30.155Z,76.42
2018-06-05T19:50:05.571Z,75.65
2018-06-05T19:50:41.577Z,75.94
2018-06-05T19:51:16.902Z,75.56
2018-06-05T19:51:52.841Z,76.14
2018-06-05T19:52:28.409Z,76.52
2018-06-05T19:53:03.561Z,75.07
2018-06-05T19:53:39.087Z,76.42
2018-06-05T19:54:14.205Z,76.61
2018-06-05T19:54:49.712Z,75.94
2018-06-05T19:55:25.211Z,76.23
2018-06-05T19:56:00.775Z,76.23
2018-06-05T19:56:36.008Z,76.32
2018-06-05T19:57:11.375Z,76.42
2018-06-05T19:57:47.112Z,76.32
2018-06-05T19:58:22.405Z,75.94
2018-06-05T19:58:57.805Z,76.90
2018-06-05T19:59:33.043Z,75.94
2018-06-05T20:00:08.461Z,76.32
2018-06-05T20:00:46.785Z,74.60
2018-06-05T20:01:24.204Z,76.42
2018-06-05T20:01:59.672Z,76.81
2018-06-05T20:02:35.195Z,77.29
2018-06-05T20:03:10.315Z,76.52
2018-06-05T20:03:45.430Z,75.27
2018-06-05T20:04:20.679Z,75.94
2018-06-05T20:04:55.966Z,75.90
2018-06-05T20:05:31.636Z,76.81
2018-06-05T20:06:07.005Z,75.75
2018-06-05T20:06:42.274Z,75.84
2018-06-05T20:07:17.587Z,75.56
2018-06-05T20:07:52.956Z,76.42
2018-06-05T20:08:28.677Z,76.19
2018-06-05T20:09:04.576Z,75.94
2018-06-05T20:09:40.050Z,76.61
2018-06-05T20:10:15.149Z,75.94
2018-06-05T20:10:52.256Z,75.81
2018-06-05T20:11:27.697Z,76.14
2018-06-05T20:12:03.107Z,75.84
2018-06-05T20:12:38.837Z,75.07
2018-06-05T20:13:14.170Z,75.52
2018-06-05T20:13:49.439Z,76.52
2018-06-05T20:14:24.823Z,76.04
2018-06-05T20:14:59.973Z,75.84
2018-06-05T20:15:36.061Z,76.23
2018-06-05T20:16:11.208Z,76.52
2018-06-05T20:16:47.161Z,76.32
2018-06-05T20:17:22.494Z,75.56
2018-06-05T20:17:58.144Z,76.42
2018-06-05T20:18:34.080Z,77.09
2018-06-05T20:19:09.509Z,76.39
2018-06-05T20:19:45.036Z,76.42
2018-06-05T20:20:20.930Z,76.14
2018-06-05T20:20:56.072Z,76.42
2018-06-05T20:21:31.495Z,76.81
2018-06-05T20:22:10.714Z,75.75